sensor_id;sensor_type;location;lat;lon;timestamp;P1;durP1;ratioP1;P2;durP2;ratioP2
53513;SDS011;39768;54.148;12.174;2023-04-24T00:00:59;3.33;;;1.67;;
53513;SDS011;39768;54.148;12.174;2023-04-24T00:05:02;2.45;;;2.03;;
53513;SDS011;39768;54.148;12.174;2023-04-24T00:09:04;1.70;;;1.52;;
53513;SDS011;39768;54.148;12.174;2023-04-24T00:13:06;1.77;;;1.35;;
53513;SDS011;39768;54.148;12.174;2023-04-24T00:17:07;1.30;;;1.20;;
53513;SDS011;39768;54.148;12.174;2023-04-24T00:21:09;1.80;;;1.50;;
53513;SDS011;39768;54.148;12.174;2023-04-24T00:25:10;1.88;;;1.60;;
53513;SDS011;39768;54.148;12.174;2023-04-24T00:29:12;2.47;;;1.67;;
53513;SDS011;39768;54.148;12.174;2023-04-24T00:33:13;2.08;;;1.85;;
53513;SDS011;39768;54.148;12.174;2023-04-24T00:37:16;3.47;;;1.60;;
53513;SDS011;39768;54.148;12.174;2023-04-24T00:41:18;2.15;;;1.75;;
53513;SDS011;39768;54.148;12.174;2023-04-24T00:45:20;1.52;;;1.38;;
53513;SDS011;39768;54.148;12.174;2023-04-24T00:49:21;2.63;;;1.60;;
53513;SDS011;39768;54.148;12.174;2023-04-24T00:53:24;1.88;;;1.20;;
53513;SDS011;39768;54.148;12.174;2023-04-24T00:57:26;2.78;;;1.45;;
53513;SDS011;39768;54.148;12.174;2023-04-24T01:01:28;3.78;;;2.33;;
53513;SDS011;39768;54.148;12.174;2023-04-24T01:05:30;1.95;;;1.45;;
53513;SDS011;39768;54.148;12.174;2023-04-24T01:09:32;1.55;;;1.30;;
53513;SDS011;39768;54.148;12.174;2023-04-24T01:13:34;2.85;;;1.75;;
53513;SDS011;39768;54.148;12.174;2023-04-24T01:17:37;1.98;;;1.45;;
53513;SDS011;39768;54.148;12.174;2023-04-24T01:21:39;1.67;;;1.27;;
53513;SDS011;39768;54.148;12.174;2023-04-24T01:25:43;7.43;;;1.50;;
53513;SDS011;39768;54.148;12.174;2023-04-24T01:29:45;2.33;;;1.90;;
53513;SDS011;39768;54.148;12.174;2023-04-24T01:33:49;1.92;;;1.52;;
53513;SDS011;39768;54.148;12.174;2023-04-24T01:37:51;1.70;;;1.55;;
53513;SDS011;39768;54.148;12.174;2023-04-24T01:41:53;1.67;;;1.40;;
53513;SDS011;39768;54.148;12.174;2023-04-24T01:45:55;1.30;;;1.20;;
53513;SDS011;39768;54.148;12.174;2023-04-24T01:49:57;2.00;;;1.50;;
53513;SDS011;39768;54.148;12.174;2023-04-24T01:53:59;2.08;;;1.33;;
53513;SDS011;39768;54.148;12.174;2023-04-24T01:58:01;1.73;;;1.40;;
53513;SDS011;39768;54.148;12.174;2023-04-24T02:02:03;1.40;;;1.20;;
53513;SDS011;39768;54.148;12.174;2023-04-24T02:06:04;1.90;;;1.80;;
53513;SDS011;39768;54.148;12.174;2023-04-24T02:10:06;1.90;;;1.30;;
53513;SDS011;39768;54.148;12.174;2023-04-24T02:14:08;1.52;;;1.33;;
53513;SDS011;39768;54.148;12.174;2023-04-24T02:18:10;1.67;;;1.33;;
53513;SDS011;39768;54.148;12.174;2023-04-24T02:22:12;2.03;;;1.92;;
53513;SDS011;39768;54.148;12.174;2023-04-24T02:31:38;2.00;;;1.42;;
53513;SDS011;39768;54.148;12.174;2023-04-24T02:35:40;1.65;;;1.55;;
53513;SDS011;39768;54.148;12.174;2023-04-24T02:39:41;5.68;;;1.80;;
53513;SDS011;39768;54.148;12.174;2023-04-24T02:43:43;2.60;;;1.90;;
53513;SDS011;39768;54.148;12.174;2023-04-24T02:47:45;3.28;;;1.67;;
53513;SDS011;39768;54.148;12.174;2023-04-24T02:51:47;1.92;;;1.52;;
53513;SDS011;39768;54.148;12.174;2023-04-24T02:55:48;3.30;;;2.05;;
53513;SDS011;39768;54.148;12.174;2023-04-24T02:59:50;3.00;;;1.52;;
53513;SDS011;39768;54.148;12.174;2023-04-24T03:03:51;3.50;;;2.58;;
53513;SDS011;39768;54.148;12.174;2023-04-24T03:07:53;2.38;;;2.08;;
53513;SDS011;39768;54.148;12.174;2023-04-24T03:11:55;3.53;;;2.30;;
53513;SDS011;39768;54.148;12.174;2023-04-24T03:15:58;3.75;;;1.58;;
53513;SDS011;39768;54.148;12.174;2023-04-24T03:20:01;1.63;;;1.50;;
53513;SDS011;39768;54.148;12.174;2023-04-24T03:24:03;1.75;;;1.65;;
53513;SDS011;39768;54.148;12.174;2023-04-24T03:28:05;4.68;;;1.95;;
53513;SDS011;39768;54.148;12.174;2023-04-24T03:32:16;2.50;;;2.30;;
53513;SDS011;39768;54.148;12.174;2023-04-24T03:36:20;4.78;;;2.00;;
53513;SDS011;39768;54.148;12.174;2023-04-24T03:40:22;1.75;;;1.45;;
53513;SDS011;39768;54.148;12.174;2023-04-24T03:44:23;3.20;;;1.65;;
53513;SDS011;39768;54.148;12.174;2023-04-24T03:48:25;2.67;;;1.98;;
53513;SDS011;39768;54.148;12.174;2023-04-24T03:52:27;2.75;;;2.42;;
53513;SDS011;39768;54.148;12.174;2023-04-24T03:56:29;6.22;;;1.40;;
53513;SDS011;39768;54.148;12.174;2023-04-24T04:00:31;1.83;;;1.65;;
53513;SDS011;39768;54.148;12.174;2023-04-24T04:04:53;2.50;;;2.15;;
53513;SDS011;39768;54.148;12.174;2023-04-24T04:08:54;1.77;;;1.63;;
53513;SDS011;39768;54.148;12.174;2023-04-24T04:12:56;2.35;;;1.67;;
53513;SDS011;39768;54.148;12.174;2023-04-24T04:16:57;3.00;;;2.03;;
53513;SDS011;39768;54.148;12.174;2023-04-24T04:21:00;2.78;;;2.17;;
53513;SDS011;39768;54.148;12.174;2023-04-24T04:25:03;2.72;;;2.40;;
53513;SDS011;39768;54.148;12.174;2023-04-24T04:29:06;2.05;;;1.77;;
53513;SDS011;39768;54.148;12.174;2023-04-24T04:33:11;2.67;;;2.33;;
53513;SDS011;39768;54.148;12.174;2023-04-24T04:37:13;3.58;;;2.05;;
53513;SDS011;39768;54.148;12.174;2023-04-24T04:41:38;4.78;;;1.65;;
53513;SDS011;39768;54.148;12.174;2023-04-24T04:45:43;2.67;;;1.73;;
53513;SDS011;39768;54.148;12.174;2023-04-24T04:50:08;3.22;;;2.08;;
53513;SDS011;39768;54.148;12.174;2023-04-24T04:54:10;2.03;;;1.90;;
53513;SDS011;39768;54.148;12.174;2023-04-24T04:58:12;2.58;;;2.10;;
53513;SDS011;39768;54.148;12.174;2023-04-24T05:02:13;1.67;;;1.58;;
53513;SDS011;39768;54.148;12.174;2023-04-24T05:06:15;1.92;;;1.75;;
53513;SDS011;39768;54.148;12.174;2023-04-24T05:10:19;8.40;;;2.03;;
53513;SDS011;39768;54.148;12.174;2023-04-24T05:14:21;2.58;;;2.35;;
53513;SDS011;39768;54.148;12.174;2023-04-24T05:18:24;3.45;;;2.33;;
53513;SDS011;39768;54.148;12.174;2023-04-24T05:22:26;3.47;;;1.92;;
53513;SDS011;39768;54.148;12.174;2023-04-24T05:26:27;4.90;;;2.20;;
53513;SDS011;39768;54.148;12.174;2023-04-24T05:30:32;3.75;;;2.20;;
53513;SDS011;39768;54.148;12.174;2023-04-24T05:34:34;3.00;;;1.95;;
53513;SDS011;39768;54.148;12.174;2023-04-24T05:38:36;3.53;;;2.03;;
53513;SDS011;39768;54.148;12.174;2023-04-24T05:42:38;1.92;;;1.52;;
53513;SDS011;39768;54.148;12.174;2023-04-24T05:46:40;5.60;;;3.13;;
53513;SDS011;39768;54.148;12.174;2023-04-24T05:50:43;2.42;;;1.98;;
53513;SDS011;39768;54.148;12.174;2023-04-24T05:54:45;2.35;;;1.70;;
53513;SDS011;39768;54.148;12.174;2023-04-24T05:58:52;3.80;;;1.80;;
53513;SDS011;39768;54.148;12.174;2023-04-24T06:02:53;2.72;;;2.05;;
53513;SDS011;39768;54.148;12.174;2023-04-24T06:06:56;2.22;;;1.73;;
53513;SDS011;39768;54.148;12.174;2023-04-24T06:10:59;2.03;;;1.90;;
53513;SDS011;39768;54.148;12.174;2023-04-24T06:15:03;1.90;;;1.75;;
53513;SDS011;39768;54.148;12.174;2023-04-24T06:19:22;2.70;;;2.00;;
53513;SDS011;39768;54.148;12.174;2023-04-24T06:23:24;2.60;;;2.17;;
53513;SDS011;39768;54.148;12.174;2023-04-24T06:27:26;1.92;;;1.75;;
53513;SDS011;39768;54.148;12.174;2023-04-24T06:31:27;2.22;;;1.63;;
53513;SDS011;39768;54.148;12.174;2023-04-24T06:35:29;2.70;;;1.83;;
53513;SDS011;39768;54.148;12.174;2023-04-24T06:39:30;6.45;;;1.40;;
53513;SDS011;39768;54.148;12.174;2023-04-24T06:43:32;2.78;;;2.03;;
53513;SDS011;39768;54.148;12.174;2023-04-24T06:47:34;2.28;;;1.13;;
53513;SDS011;39768;54.148;12.174;2023-04-24T06:51:35;1.65;;;1.40;;
53513;SDS011;39768;54.148;12.174;2023-04-24T06:55:37;1.88;;;1.67;;
53513;SDS011;39768;54.148;12.174;2023-04-24T06:59:39;1.38;;;1.25;;
53513;SDS011;39768;54.148;12.174;2023-04-24T07:03:40;1.65;;;1.45;;
53513;SDS011;39768;54.148;12.174;2023-04-24T07:07:42;1.45;;;1.35;;
53513;SDS011;39768;54.148;12.174;2023-04-24T07:11:44;1.08;;;1.05;;
53513;SDS011;39768;54.148;12.174;2023-04-24T07:15:46;1.20;;;1.02;;
53513;SDS011;39768;54.148;12.174;2023-04-24T07:19:51;1.08;;;0.95;;
53513;SDS011;39768;54.148;12.174;2023-04-24T07:23:53;0.77;;;0.75;;
53513;SDS011;39768;54.148;12.174;2023-04-24T07:27:54;0.85;;;0.68;;
53513;SDS011;39768;54.148;12.174;2023-04-24T07:31:56;1.10;;;1.00;;
53513;SDS011;39768;54.148;12.174;2023-04-24T07:35:58;0.85;;;0.80;;
53513;SDS011;39768;54.148;12.174;2023-04-24T07:40:00;1.10;;;1.00;;
53513;SDS011;39768;54.148;12.174;2023-04-24T07:44:01;0.90;;;0.90;;
53513;SDS011;39768;54.148;12.174;2023-04-24T07:48:03;1.52;;;1.10;;
53513;SDS011;39768;54.148;12.174;2023-04-24T07:52:05;0.60;;;0.60;;
53513;SDS011;39768;54.148;12.174;2023-04-24T07:56:06;0.77;;;0.60;;
53513;SDS011;39768;54.148;12.174;2023-04-24T08:00:08;0.60;;;0.60;;
53513;SDS011;39768;54.148;12.174;2023-04-24T08:04:13;0.50;;;0.50;;
53513;SDS011;39768;54.148;12.174;2023-04-24T08:08:14;0.80;;;0.80;;
53513;SDS011;39768;54.148;12.174;2023-04-24T08:12:16;1.85;;;0.75;;
53513;SDS011;39768;54.148;12.174;2023-04-24T08:16:17;0.98;;;0.70;;
53513;SDS011;39768;54.148;12.174;2023-04-24T08:20:19;0.75;;;0.75;;
53513;SDS011;39768;54.148;12.174;2023-04-24T08:24:21;1.10;;;0.95;;
53513;SDS011;39768;54.148;12.174;2023-04-24T08:28:23;0.70;;;0.70;;
53513;SDS011;39768;54.148;12.174;2023-04-24T08:32:25;0.65;;;0.57;;
53513;SDS011;39768;54.148;12.174;2023-04-24T08:36:29;0.55;;;0.45;;
53513;SDS011;39768;54.148;12.174;2023-04-24T08:40:47;2.47;;;0.50;;
53513;SDS011;39768;54.148;12.174;2023-04-24T08:44:50;1.02;;;0.60;;
53513;SDS011;39768;54.148;12.174;2023-04-24T08:48:52;0.85;;;0.85;;
53513;SDS011;39768;54.148;12.174;2023-04-24T08:52:54;0.50;;;0.50;;
53513;SDS011;39768;54.148;12.174;2023-04-24T08:56:59;0.35;;;0.35;;
53513;SDS011;39768;54.148;12.174;2023-04-24T09:01:05;1.50;;;0.23;;
53513;SDS011;39768;54.148;12.174;2023-04-24T09:05:06;1.00;;;0.77;;
53513;SDS011;39768;54.148;12.174;2023-04-24T09:09:08;1.35;;;0.98;;
53513;SDS011;39768;54.148;12.174;2023-04-24T09:13:12;0.80;;;0.70;;
53513;SDS011;39768;54.148;12.174;2023-04-24T09:17:14;1.65;;;0.43;;
53513;SDS011;39768;54.148;12.174;2023-04-24T09:21:15;0.80;;;0.50;;
53513;SDS011;39768;54.148;12.174;2023-04-24T09:25:17;0.40;;;0.40;;
53513;SDS011;39768;54.148;12.174;2023-04-24T09:29:18;0.55;;;0.55;;
53513;SDS011;39768;54.148;12.174;2023-04-24T09:33:20;1.75;;;0.80;;
53513;SDS011;39768;54.148;12.174;2023-04-24T09:37:28;1.00;;;0.82;;
53513;SDS011;39768;54.148;12.174;2023-04-24T09:41:31;0.80;;;0.80;;
53513;SDS011;39768;54.148;12.174;2023-04-24T09:45:37;0.60;;;0.60;;
53513;SDS011;39768;54.148;12.174;2023-04-24T09:49:41;1.90;;;0.70;;
53513;SDS011;39768;54.148;12.174;2023-04-24T09:53:46;1.40;;;0.85;;
53513;SDS011;39768;54.148;12.174;2023-04-24T09:57:56;1.08;;;0.90;;
53513;SDS011;39768;54.148;12.174;2023-04-24T10:01:59;0.43;;;0.43;;
53513;SDS011;39768;54.148;12.174;2023-04-24T10:06:01;0.40;;;0.40;;
53513;SDS011;39768;54.148;12.174;2023-04-24T10:10:03;1.38;;;0.73;;
53513;SDS011;39768;54.148;12.174;2023-04-24T10:14:06;3.45;;;0.90;;
53513;SDS011;39768;54.148;12.174;2023-04-24T10:18:08;0.55;;;0.52;;
53513;SDS011;39768;54.148;12.174;2023-04-24T10:22:10;0.55;;;0.55;;
53513;SDS011;39768;54.148;12.174;2023-04-24T10:26:12;0.80;;;0.57;;
53513;SDS011;39768;54.148;12.174;2023-04-24T10:30:19;0.47;;;0.47;;
53513;SDS011;39768;54.148;12.174;2023-04-24T10:34:21;0.57;;;0.57;;
53513;SDS011;39768;54.148;12.174;2023-04-24T10:38:27;2.45;;;0.70;;
53513;SDS011;39768;54.148;12.174;2023-04-24T10:42:30;0.68;;;0.65;;
53513;SDS011;39768;54.148;12.174;2023-04-24T10:46:32;0.28;;;0.28;;
53513;SDS011;39768;54.148;12.174;2023-04-24T10:54:48;0.77;;;0.60;;
53513;SDS011;39768;54.148;12.174;2023-04-24T10:58:51;0.65;;;0.65;;
53513;SDS011;39768;54.148;12.174;2023-04-24T11:02:54;0.88;;;0.77;;
53513;SDS011;39768;54.148;12.174;2023-04-24T11:06:57;0.63;;;0.60;;
53513;SDS011;39768;54.148;12.174;2023-04-24T11:11:02;0.50;;;0.50;;
53513;SDS011;39768;54.148;12.174;2023-04-24T11:15:17;1.20;;;0.55;;
53513;SDS011;39768;54.148;12.174;2023-04-24T11:19:22;0.40;;;0.40;;
53513;SDS011;39768;54.148;12.174;2023-04-24T11:23:25;0.75;;;0.63;;
53513;SDS011;39768;54.148;12.174;2023-04-24T11:27:28;0.63;;;0.52;;
53513;SDS011;39768;54.148;12.174;2023-04-24T11:31:38;0.50;;;0.50;;
53513;SDS011;39768;54.148;12.174;2023-04-24T11:35:42;0.50;;;0.50;;
53513;SDS011;39768;54.148;12.174;2023-04-24T11:39:44;0.40;;;0.40;;
53513;SDS011;39768;54.148;12.174;2023-04-24T11:43:45;1.00;;;0.95;;
53513;SDS011;39768;54.148;12.174;2023-04-24T11:47:47;0.60;;;0.60;;
53513;SDS011;39768;54.148;12.174;2023-04-24T11:51:49;0.40;;;0.40;;
53513;SDS011;39768;54.148;12.174;2023-04-24T11:55:54;2.15;;;1.00;;
53513;SDS011;39768;54.148;12.174;2023-04-24T11:59:56;2.65;;;0.40;;
53513;SDS011;39768;54.148;12.174;2023-04-24T12:04:00;0.73;;;0.50;;
53513;SDS011;39768;54.148;12.174;2023-04-24T12:08:02;0.50;;;0.50;;
53513;SDS011;39768;54.148;12.174;2023-04-24T12:12:04;0.52;;;0.52;;
53513;SDS011;39768;54.148;12.174;2023-04-24T12:16:07;0.57;;;0.57;;
53513;SDS011;39768;54.148;12.174;2023-04-24T12:20:09;0.60;;;0.60;;
53513;SDS011;39768;54.148;12.174;2023-04-24T12:24:11;0.50;;;0.50;;
53513;SDS011;39768;54.148;12.174;2023-04-24T12:28:12;0.73;;;0.50;;
53513;SDS011;39768;54.148;12.174;2023-04-24T12:32:17;0.70;;;0.45;;
53513;SDS011;39768;54.148;12.174;2023-04-24T12:36:20;0.65;;;0.55;;
53513;SDS011;39768;54.148;12.174;2023-04-24T12:40:24;0.30;;;0.30;;
53513;SDS011;39768;54.148;12.174;2023-04-24T12:44:30;0.40;;;0.40;;
53513;SDS011;39768;54.148;12.174;2023-04-24T12:48:32;0.30;;;0.30;;
53513;SDS011;39768;54.148;12.174;2023-04-24T12:52:34;0.35;;;0.30;;
53513;SDS011;39768;54.148;12.174;2023-04-24T12:56:35;0.63;;;0.52;;
53513;SDS011;39768;54.148;12.174;2023-04-24T13:00:40;0.68;;;0.45;;
53513;SDS011;39768;54.148;12.174;2023-04-24T13:04:45;0.70;;;0.70;;
53513;SDS011;39768;54.148;12.174;2023-04-24T13:08:48;0.63;;;0.63;;
53513;SDS011;39768;54.148;12.174;2023-04-24T13:12:49;0.50;;;0.50;;
53513;SDS011;39768;54.148;12.174;2023-04-24T13:16:51;0.80;;;0.50;;
53513;SDS011;39768;54.148;12.174;2023-04-24T13:20:53;0.75;;;0.73;;
53513;SDS011;39768;54.148;12.174;2023-04-24T13:24:54;0.60;;;0.60;;
53513;SDS011;39768;54.148;12.174;2023-04-24T13:28:57;0.68;;;0.65;;
53513;SDS011;39768;54.148;12.174;2023-04-24T13:32:58;0.55;;;0.55;;
53513;SDS011;39768;54.148;12.174;2023-04-24T13:37:00;0.50;;;0.50;;
53513;SDS011;39768;54.148;12.174;2023-04-24T13:41:02;0.60;;;0.60;;
53513;SDS011;39768;54.148;12.174;2023-04-24T13:45:04;0.45;;;0.22;;
53513;SDS011;39768;54.148;12.174;2023-04-24T13:49:26;0.98;;;0.47;;
53513;SDS011;39768;54.148;12.174;2023-04-24T13:53:28;0.63;;;0.63;;
53513;SDS011;39768;54.148;12.174;2023-04-24T13:57:29;0.52;;;0.52;;
53513;SDS011;39768;54.148;12.174;2023-04-24T14:01:32;0.63;;;0.63;;
53513;SDS011;39768;54.148;12.174;2023-04-24T14:05:33;2.58;;;0.65;;
53513;SDS011;39768;54.148;12.174;2023-04-24T14:09:38;1.40;;;0.85;;
53513;SDS011;39768;54.148;12.174;2023-04-24T14:13:43;1.30;;;1.20;;
53513;SDS011;39768;54.148;12.174;2023-04-24T14:17:47;0.93;;;0.80;;
53513;SDS011;39768;54.148;12.174;2023-04-24T14:21:49;3.25;;;1.00;;
53513;SDS011;39768;54.148;12.174;2023-04-24T14:25:51;1.08;;;0.95;;
53513;SDS011;39768;54.148;12.174;2023-04-24T14:29:53;1.38;;;1.10;;
53513;SDS011;39768;54.148;12.174;2023-04-24T14:33:55;1.83;;;1.27;;
53513;SDS011;39768;54.148;12.174;2023-04-24T14:37:56;1.45;;;1.15;;
53513;SDS011;39768;54.148;12.174;2023-04-24T14:41:58;1.33;;;1.23;;
53513;SDS011;39768;54.148;12.174;2023-04-24T14:45:59;1.25;;;1.15;;
53513;SDS011;39768;54.148;12.174;2023-04-24T14:50:01;8.20;;;1.83;;
53513;SDS011;39768;54.148;12.174;2023-04-24T14:54:03;1.65;;;1.00;;
53513;SDS011;39768;54.148;12.174;2023-04-24T14:58:04;1.60;;;1.35;;
53513;SDS011;39768;54.148;12.174;2023-04-24T15:02:06;1.55;;;1.05;;
53513;SDS011;39768;54.148;12.174;2023-04-24T15:06:16;1.38;;;1.05;;
53513;SDS011;39768;54.148;12.174;2023-04-24T15:10:18;1.90;;;1.33;;
53513;SDS011;39768;54.148;12.174;2023-04-24T15:14:20;1.73;;;1.60;;
53513;SDS011;39768;54.148;12.174;2023-04-24T15:18:21;1.60;;;1.23;;
53513;SDS011;39768;54.148;12.174;2023-04-24T15:22:23;1.27;;;1.13;;
53513;SDS011;39768;54.148;12.174;2023-04-24T15:26:24;1.35;;;1.25;;
53513;SDS011;39768;54.148;12.174;2023-04-24T15:30:26;3.67;;;1.27;;
53513;SDS011;39768;54.148;12.174;2023-04-24T15:34:28;0.98;;;0.75;;
53513;SDS011;39768;54.148;12.174;2023-04-24T15:38:30;2.05;;;0.82;;
53513;SDS011;39768;54.148;12.174;2023-04-24T15:42:32;0.63;;;0.57;;
53513;SDS011;39768;54.148;12.174;2023-04-24T15:46:36;7.15;;;0.90;;
53513;SDS011;39768;54.148;12.174;2023-04-24T15:50:38;1.88;;;0.95;;
53513;SDS011;39768;54.148;12.174;2023-04-24T15:54:39;0.73;;;0.73;;
53513;SDS011;39768;54.148;12.174;2023-04-24T15:58:41;0.95;;;0.93;;
53513;SDS011;39768;54.148;12.174;2023-04-24T16:02:43;1.75;;;0.95;;
53513;SDS011;39768;54.148;12.174;2023-04-24T16:06:44;0.98;;;0.88;;
53513;SDS011;39768;54.148;12.174;2023-04-24T16:10:46;2.05;;;1.20;;
53513;SDS011;39768;54.148;12.174;2023-04-24T16:14:47;0.90;;;0.90;;
53513;SDS011;39768;54.148;12.174;2023-04-24T16:18:49;1.65;;;1.20;;
53513;SDS011;39768;54.148;12.174;2023-04-24T16:22:51;1.13;;;0.95;;
53513;SDS011;39768;54.148;12.174;2023-04-24T16:26:54;1.10;;;0.82;;
53513;SDS011;39768;54.148;12.174;2023-04-24T16:30:56;0.57;;;0.57;;
53513;SDS011;39768;54.148;12.174;2023-04-24T16:35:04;0.75;;;0.60;;
53513;SDS011;39768;54.148;12.174;2023-04-24T16:39:06;1.08;;;0.63;;
53513;SDS011;39768;54.148;12.174;2023-04-24T16:43:07;0.85;;;0.77;;
53513;SDS011;39768;54.148;12.174;2023-04-24T16:47:09;3.17;;;0.63;;
53513;SDS011;39768;54.148;12.174;2023-04-24T16:51:14;0.77;;;0.77;;
53513;SDS011;39768;54.148;12.174;2023-04-24T16:55:16;0.80;;;0.80;;
53513;SDS011;39768;54.148;12.174;2023-04-24T16:59:18;0.68;;;0.68;;
53513;SDS011;39768;54.148;12.174;2023-04-24T17:03:19;0.70;;;0.70;;
53513;SDS011;39768;54.148;12.174;2023-04-24T17:07:22;1.27;;;0.75;;
53513;SDS011;39768;54.148;12.174;2023-04-24T17:11:23;1.70;;;0.90;;
53513;SDS011;39768;54.148;12.174;2023-04-24T17:15:26;0.40;;;0.40;;
53513;SDS011;39768;54.148;12.174;2023-04-24T17:19:28;0.50;;;0.50;;
53513;SDS011;39768;54.148;12.174;2023-04-24T17:23:29;0.65;;;0.50;;
53513;SDS011;39768;54.148;12.174;2023-04-24T17:27:32;0.60;;;0.60;;
53513;SDS011;39768;54.148;12.174;2023-04-24T17:31:33;1.00;;;0.80;;
53513;SDS011;39768;54.148;12.174;2023-04-24T17:35:35;1.42;;;0.80;;
53513;SDS011;39768;54.148;12.174;2023-04-24T17:39:36;0.55;;;0.47;;
53513;SDS011;39768;54.148;12.174;2023-04-24T17:43:38;0.80;;;0.80;;
53513;SDS011;39768;54.148;12.174;2023-04-24T17:47:40;0.93;;;0.70;;
53513;SDS011;39768;54.148;12.174;2023-04-24T17:51:42;0.82;;;0.80;;
53513;SDS011;39768;54.148;12.174;2023-04-24T17:55:44;1.33;;;0.82;;
53513;SDS011;39768;54.148;12.174;2023-04-24T17:59:46;1.08;;;1.00;;
53513;SDS011;39768;54.148;12.174;2023-04-24T18:03:48;0.75;;;0.70;;
53513;SDS011;39768;54.148;12.174;2023-04-24T18:07:49;1.08;;;0.82;;
53513;SDS011;39768;54.148;12.174;2023-04-24T18:11:51;1.20;;;1.10;;
53513;SDS011;39768;54.148;12.174;2023-04-24T18:15:55;0.80;;;0.80;;
53513;SDS011;39768;54.148;12.174;2023-04-24T18:19:56;1.55;;;0.77;;
53513;SDS011;39768;54.148;12.174;2023-04-24T18:23:58;0.80;;;0.80;;
53513;SDS011;39768;54.148;12.174;2023-04-24T18:28:01;1.05;;;0.75;;
53513;SDS011;39768;54.148;12.174;2023-04-24T18:32:02;0.85;;;0.80;;
53513;SDS011;39768;54.148;12.174;2023-04-24T18:36:05;0.50;;;0.50;;
53513;SDS011;39768;54.148;12.174;2023-04-24T18:40:07;1.38;;;0.43;;
53513;SDS011;39768;54.148;12.174;2023-04-24T18:44:09;0.50;;;0.50;;
53513;SDS011;39768;54.148;12.174;2023-04-24T18:48:12;0.68;;;0.50;;
53513;SDS011;39768;54.148;12.174;2023-04-24T18:52:13;1.13;;;1.05;;
53513;SDS011;39768;54.148;12.174;2023-04-24T18:56:15;0.50;;;0.50;;
53513;SDS011;39768;54.148;12.174;2023-04-24T19:00:16;0.32;;;0.32;;
53513;SDS011;39768;54.148;12.174;2023-04-24T19:04:19;0.73;;;0.68;;
53513;SDS011;39768;54.148;12.174;2023-04-24T19:08:21;0.68;;;0.52;;
53513;SDS011;39768;54.148;12.174;2023-04-24T19:12:23;0.60;;;0.47;;
53513;SDS011;39768;54.148;12.174;2023-04-24T19:16:25;0.70;;;0.70;;
53513;SDS011;39768;54.148;12.174;2023-04-24T19:20:27;1.02;;;0.95;;
53513;SDS011;39768;54.148;12.174;2023-04-24T19:24:29;4.47;;;1.00;;
53513;SDS011;39768;54.148;12.174;2023-04-24T19:28:33;0.65;;;0.65;;
53513;SDS011;39768;54.148;12.174;2023-04-24T19:32:34;3.72;;;1.38;;
53513;SDS011;39768;54.148;12.174;2023-04-24T19:36:36;1.20;;;0.90;;
53513;SDS011;39768;54.148;12.174;2023-04-24T19:40:37;1.50;;;0.93;;
53513;SDS011;39768;54.148;12.174;2023-04-24T19:44:39;1.05;;;0.90;;
53513;SDS011;39768;54.148;12.174;2023-04-24T19:48:40;1.00;;;0.52;;
53513;SDS011;39768;54.148;12.174;2023-04-24T19:52:42;1.85;;;0.90;;
53513;SDS011;39768;54.148;12.174;2023-04-24T19:56:43;0.52;;;0.45;;
53513;SDS011;39768;54.148;12.174;2023-04-24T20:00:45;1.45;;;0.75;;
53513;SDS011;39768;54.148;12.174;2023-04-24T20:04:46;0.50;;;0.50;;
53513;SDS011;39768;54.148;12.174;2023-04-24T20:08:48;1.33;;;1.17;;
53513;SDS011;39768;54.148;12.174;2023-04-24T20:12:50;0.73;;;0.73;;
53513;SDS011;39768;54.148;12.174;2023-04-24T20:16:53;0.95;;;0.60;;
53513;SDS011;39768;54.148;12.174;2023-04-24T20:20:55;4.18;;;0.82;;
53513;SDS011;39768;54.148;12.174;2023-04-24T20:25:00;0.57;;;0.57;;
53513;SDS011;39768;54.148;12.174;2023-04-24T20:29:03;1.63;;;0.85;;
53513;SDS011;39768;54.148;12.174;2023-04-24T20:33:05;0.98;;;0.98;;
53513;SDS011;39768;54.148;12.174;2023-04-24T20:37:07;2.03;;;0.60;;
53513;SDS011;39768;54.148;12.174;2023-04-24T20:41:08;1.02;;;0.80;;
53513;SDS011;39768;54.148;12.174;2023-04-24T20:45:10;0.82;;;0.80;;
53513;SDS011;39768;54.148;12.174;2023-04-24T20:49:12;3.10;;;0.80;;
53513;SDS011;39768;54.148;12.174;2023-04-24T20:53:13;0.80;;;0.80;;
53513;SDS011;39768;54.148;12.174;2023-04-24T20:57:15;0.65;;;0.65;;
53513;SDS011;39768;54.148;12.174;2023-04-24T21:01:16;1.20;;;1.10;;
53513;SDS011;39768;54.148;12.174;2023-04-24T21:05:18;1.77;;;0.70;;
53513;SDS011;39768;54.148;12.174;2023-04-24T21:09:19;3.13;;;0.95;;
53513;SDS011;39768;54.148;12.174;2023-04-24T21:13:21;4.30;;;1.02;;
53513;SDS011;39768;54.148;12.174;2023-04-24T21:17:22;1.52;;;1.23;;
53513;SDS011;39768;54.148;12.174;2023-04-24T21:21:24;0.80;;;0.80;;
53513;SDS011;39768;54.148;12.174;2023-04-24T21:25:25;2.40;;;0.98;;
53513;SDS011;39768;54.148;12.174;2023-04-24T21:29:28;1.00;;;1.00;;
53513;SDS011;39768;54.148;12.174;2023-04-24T21:33:29;1.30;;;1.20;;
53513;SDS011;39768;54.148;12.174;2023-04-24T21:37:31;1.10;;;0.90;;
53513;SDS011;39768;54.148;12.174;2023-04-24T21:41:34;1.30;;;0.77;;
53513;SDS011;39768;54.148;12.174;2023-04-24T21:45:35;0.93;;;0.90;;
53513;SDS011;39768;54.148;12.174;2023-04-24T21:49:37;6.57;;;1.20;;
53513;SDS011;39768;54.148;12.174;2023-04-24T21:53:38;2.10;;;1.10;;
53513;SDS011;39768;54.148;12.174;2023-04-24T21:57:40;1.42;;;1.10;;
53513;SDS011;39768;54.148;12.174;2023-04-24T22:01:41;1.00;;;1.00;;
53513;SDS011;39768;54.148;12.174;2023-04-24T22:05:44;1.27;;;0.65;;
53513;SDS011;39768;54.148;12.174;2023-04-24T22:09:46;1.48;;;1.23;;
53513;SDS011;39768;54.148;12.174;2023-04-24T22:13:47;1.67;;;1.58;;
53513;SDS011;39768;54.148;12.174;2023-04-24T22:17:49;1.25;;;1.15;;
53513;SDS011;39768;54.148;12.174;2023-04-24T22:21:52;1.20;;;0.88;;
53513;SDS011;39768;54.148;12.174;2023-04-24T22:25:54;1.10;;;1.10;;
53513;SDS011;39768;54.148;12.174;2023-04-24T22:29:56;2.20;;;1.30;;
53513;SDS011;39768;54.148;12.174;2023-04-24T22:33:58;1.15;;;1.10;;
53513;SDS011;39768;54.148;12.174;2023-04-24T22:37:59;0.88;;;0.88;;
53513;SDS011;39768;54.148;12.174;2023-04-24T22:42:01;0.75;;;0.75;;
53513;SDS011;39768;54.148;12.174;2023-04-24T22:46:22;1.02;;;1.00;;
53513;SDS011;39768;54.148;12.174;2023-04-24T22:50:25;0.80;;;0.80;;
53513;SDS011;39768;54.148;12.174;2023-04-24T22:54:27;0.80;;;0.80;;
53513;SDS011;39768;54.148;12.174;2023-04-24T22:58:30;2.45;;;1.30;;
53513;SDS011;39768;54.148;12.174;2023-04-24T23:02:32;0.60;;;0.60;;
53513;SDS011;39768;54.148;12.174;2023-04-24T23:06:34;1.08;;;1.00;;
53513;SDS011;39768;54.148;12.174;2023-04-24T23:10:35;1.40;;;1.30;;
53513;SDS011;39768;54.148;12.174;2023-04-24T23:14:37;0.98;;;0.90;;
53513;SDS011;39768;54.148;12.174;2023-04-24T23:18:38;0.73;;;0.73;;
53513;SDS011;39768;54.148;12.174;2023-04-24T23:22:40;1.38;;;1.02;;
53513;SDS011;39768;54.148;12.174;2023-04-24T23:26:42;0.80;;;0.70;;
53513;SDS011;39768;54.148;12.174;2023-04-24T23:30:43;0.65;;;0.65;;
53513;SDS011;39768;54.148;12.174;2023-04-24T23:34:45;0.85;;;0.85;;
53513;SDS011;39768;54.148;12.174;2023-04-24T23:38:46;0.80;;;0.68;;
53513;SDS011;39768;54.148;12.174;2023-04-24T23:42:51;1.52;;;0.98;;
53513;SDS011;39768;54.148;12.174;2023-04-24T23:47:07;0.90;;;0.82;;
53513;SDS011;39768;54.148;12.174;2023-04-24T23:51:09;1.23;;;1.00;;
53513;SDS011;39768;54.148;12.174;2023-04-24T23:55:11;3.08;;;0.65;;
53513;SDS011;39768;54.148;12.174;2023-04-24T23:59:13;1.45;;;1.35;;
